sensor_id;sensor_type;location;lat;lon;timestamp;P1;durP1;ratioP1;P2;durP2;ratioP2
25439;SDS011;13365;52.208;5.488;2023-04-15T00:00:14;4.30;;;2.78;;
25439;SDS011;13365;52.208;5.488;2023-04-15T00:02:40;5.57;;;2.33;;
25439;SDS011;13365;52.208;5.488;2023-04-15T00:05:06;6.28;;;1.90;;
25439;SDS011;13365;52.208;5.488;2023-04-15T00:07:32;3.50;;;2.03;;
25439;SDS011;13365;52.208;5.488;2023-04-15T00:09:58;3.65;;;2.08;;
25439;SDS011;13365;52.208;5.488;2023-04-15T00:12:24;6.47;;;2.17;;
25439;SDS011;13365;52.208;5.488;2023-04-15T00:14:50;7.18;;;2.10;;
25439;SDS011;13365;52.208;5.488;2023-04-15T00:17:15;4.32;;;1.75;;
25439;SDS011;13365;52.208;5.488;2023-04-15T00:19:41;4.10;;;2.00;;
25439;SDS011;13365;52.208;5.488;2023-04-15T00:22:08;6.13;;;2.10;;
25439;SDS011;13365;52.208;5.488;2023-04-15T00:24:34;3.45;;;1.75;;
25439;SDS011;13365;52.208;5.488;2023-04-15T00:26:59;3.65;;;1.42;;
25439;SDS011;13365;52.208;5.488;2023-04-15T00:29:25;2.88;;;1.70;;
25439;SDS011;13365;52.208;5.488;2023-04-15T00:31:50;4.05;;;1.42;;
25439;SDS011;13365;52.208;5.488;2023-04-15T00:34:17;9.65;;;1.88;;
25439;SDS011;13365;52.208;5.488;2023-04-15T00:36:43;2.60;;;1.52;;
25439;SDS011;13365;52.208;5.488;2023-04-15T00:39:08;2.78;;;1.77;;
25439;SDS011;13365;52.208;5.488;2023-04-15T00:41:34;3.30;;;1.60;;
25439;SDS011;13365;52.208;5.488;2023-04-15T00:44:03;3.92;;;2.25;;
25439;SDS011;13365;52.208;5.488;2023-04-15T00:46:30;2.38;;;1.70;;
25439;SDS011;13365;52.208;5.488;2023-04-15T00:48:57;2.70;;;1.73;;
25439;SDS011;13365;52.208;5.488;2023-04-15T00:51:23;4.05;;;2.08;;
25439;SDS011;13365;52.208;5.488;2023-04-15T00:53:49;2.53;;;1.30;;
25439;SDS011;13365;52.208;5.488;2023-04-15T00:56:15;2.83;;;1.80;;
25439;SDS011;13365;52.208;5.488;2023-04-15T00:58:41;7.03;;;2.35;;
25439;SDS011;13365;52.208;5.488;2023-04-15T01:01:07;4.22;;;2.00;;
25439;SDS011;13365;52.208;5.488;2023-04-15T01:03:32;3.72;;;1.98;;
25439;SDS011;13365;52.208;5.488;2023-04-15T01:05:58;4.35;;;1.55;;
25439;SDS011;13365;52.208;5.488;2023-04-15T01:08:28;3.00;;;1.50;;
25439;SDS011;13365;52.208;5.488;2023-04-15T01:10:55;2.10;;;1.38;;
25439;SDS011;13365;52.208;5.488;2023-04-15T01:13:22;3.47;;;1.90;;
25439;SDS011;13365;52.208;5.488;2023-04-15T01:15:48;7.07;;;2.30;;
25439;SDS011;13365;52.208;5.488;2023-04-15T01:18:15;2.15;;;1.50;;
25439;SDS011;13365;52.208;5.488;2023-04-15T01:20:41;3.70;;;1.95;;
25439;SDS011;13365;52.208;5.488;2023-04-15T01:23:07;7.85;;;2.25;;
25439;SDS011;13365;52.208;5.488;2023-04-15T01:25:33;2.92;;;1.98;;
25439;SDS011;13365;52.208;5.488;2023-04-15T01:27:59;3.92;;;2.00;;
25439;SDS011;13365;52.208;5.488;2023-04-15T01:30:25;3.80;;;1.80;;
25439;SDS011;13365;52.208;5.488;2023-04-15T01:32:53;7.38;;;2.53;;
25439;SDS011;13365;52.208;5.488;2023-04-15T01:35:19;4.07;;;2.20;;
25439;SDS011;13365;52.208;5.488;2023-04-15T01:37:45;3.50;;;1.80;;
25439;SDS011;13365;52.208;5.488;2023-04-15T01:40:11;2.63;;;1.80;;
25439;SDS011;13365;52.208;5.488;2023-04-15T01:42:37;5.38;;;2.08;;
25439;SDS011;13365;52.208;5.488;2023-04-15T01:45:03;2.92;;;2.10;;
25439;SDS011;13365;52.208;5.488;2023-04-15T01:47:30;6.00;;;2.33;;
25439;SDS011;13365;52.208;5.488;2023-04-15T01:49:56;2.60;;;1.98;;
25439;SDS011;13365;52.208;5.488;2023-04-15T01:52:21;5.82;;;2.47;;
25439;SDS011;13365;52.208;5.488;2023-04-15T01:54:47;3.65;;;1.77;;
25439;SDS011;13365;52.208;5.488;2023-04-15T01:57:13;5.65;;;1.75;;
25439;SDS011;13365;52.208;5.488;2023-04-15T01:59:38;4.35;;;2.53;;
25439;SDS011;13365;52.208;5.488;2023-04-15T02:02:05;3.70;;;2.22;;
25439;SDS011;13365;52.208;5.488;2023-04-15T02:04:30;6.65;;;2.45;;
25439;SDS011;13365;52.208;5.488;2023-04-15T02:06:56;4.13;;;2.28;;
25439;SDS011;13365;52.208;5.488;2023-04-15T02:09:22;3.95;;;1.85;;
25439;SDS011;13365;52.208;5.488;2023-04-15T02:11:47;3.30;;;2.65;;
25439;SDS011;13365;52.208;5.488;2023-04-15T02:14:13;5.63;;;2.42;;
25439;SDS011;13365;52.208;5.488;2023-04-15T02:16:38;4.47;;;1.70;;
25439;SDS011;13365;52.208;5.488;2023-04-15T02:19:04;6.13;;;2.42;;
25439;SDS011;13365;52.208;5.488;2023-04-15T02:21:30;7.55;;;2.65;;
25439;SDS011;13365;52.208;5.488;2023-04-15T02:23:55;10.00;;;3.00;;
25439;SDS011;13365;52.208;5.488;2023-04-15T02:26:22;4.28;;;2.33;;
25439;SDS011;13365;52.208;5.488;2023-04-15T02:28:49;10.98;;;2.60;;
25439;SDS011;13365;52.208;5.488;2023-04-15T02:31:15;9.38;;;4.13;;
25439;SDS011;13365;52.208;5.488;2023-04-15T02:33:41;3.35;;;2.22;;
25439;SDS011;13365;52.208;5.488;2023-04-15T02:36:07;10.98;;;2.00;;
25439;SDS011;13365;52.208;5.488;2023-04-15T02:38:34;6.20;;;2.40;;
25439;SDS011;13365;52.208;5.488;2023-04-15T02:40:59;7.68;;;3.55;;
25439;SDS011;13365;52.208;5.488;2023-04-15T02:43:25;3.50;;;2.10;;
25439;SDS011;13365;52.208;5.488;2023-04-15T02:45:51;7.43;;;2.75;;
25439;SDS011;13365;52.208;5.488;2023-04-15T02:48:17;5.45;;;2.97;;
25439;SDS011;13365;52.208;5.488;2023-04-15T02:50:44;3.92;;;2.10;;
25439;SDS011;13365;52.208;5.488;2023-04-15T02:53:10;7.05;;;3.13;;
25439;SDS011;13365;52.208;5.488;2023-04-15T02:55:37;7.93;;;2.70;;
25439;SDS011;13365;52.208;5.488;2023-04-15T02:58:02;6.13;;;1.77;;
25439;SDS011;13365;52.208;5.488;2023-04-15T03:00:28;15.75;;;2.30;;
25439;SDS011;13365;52.208;5.488;2023-04-15T03:02:57;4.10;;;2.25;;
25439;SDS011;13365;52.208;5.488;2023-04-15T03:05:26;5.40;;;2.22;;
25439;SDS011;13365;52.208;5.488;2023-04-15T03:07:51;9.70;;;2.78;;
25439;SDS011;13365;52.208;5.488;2023-04-15T03:10:17;7.35;;;2.25;;
25439;SDS011;13365;52.208;5.488;2023-04-15T03:12:43;5.25;;;2.47;;
25439;SDS011;13365;52.208;5.488;2023-04-15T03:15:09;4.28;;;2.40;;
25439;SDS011;13365;52.208;5.488;2023-04-15T03:17:35;6.05;;;2.90;;
25439;SDS011;13365;52.208;5.488;2023-04-15T03:20:01;6.88;;;3.15;;
25439;SDS011;13365;52.208;5.488;2023-04-15T03:22:29;5.38;;;2.75;;
25439;SDS011;13365;52.208;5.488;2023-04-15T03:24:55;3.22;;;2.00;;
25439;SDS011;13365;52.208;5.488;2023-04-15T03:27:21;9.63;;;3.22;;
25439;SDS011;13365;52.208;5.488;2023-04-15T03:29:46;8.65;;;2.60;;
25439;SDS011;13365;52.208;5.488;2023-04-15T03:32:13;3.00;;;2.17;;
25439;SDS011;13365;52.208;5.488;2023-04-15T03:34:39;3.05;;;1.88;;
25439;SDS011;13365;52.208;5.488;2023-04-15T03:37:05;5.07;;;2.45;;
25439;SDS011;13365;52.208;5.488;2023-04-15T03:39:31;4.15;;;2.35;;
25439;SDS011;13365;52.208;5.488;2023-04-15T03:41:57;5.78;;;2.92;;
25439;SDS011;13365;52.208;5.488;2023-04-15T03:44:23;5.60;;;2.20;;
25439;SDS011;13365;52.208;5.488;2023-04-15T03:46:50;6.43;;;3.13;;
25439;SDS011;13365;52.208;5.488;2023-04-15T03:49:15;12.05;;;2.20;;
25439;SDS011;13365;52.208;5.488;2023-04-15T03:51:41;6.20;;;3.25;;
25439;SDS011;13365;52.208;5.488;2023-04-15T03:54:07;11.75;;;3.28;;
25439;SDS011;13365;52.208;5.488;2023-04-15T03:56:32;4.90;;;3.53;;
25439;SDS011;13365;52.208;5.488;2023-04-15T03:58:58;6.28;;;3.13;;
25439;SDS011;13365;52.208;5.488;2023-04-15T04:01:23;8.25;;;3.45;;
25439;SDS011;13365;52.208;5.488;2023-04-15T04:03:49;6.65;;;2.50;;
25439;SDS011;13365;52.208;5.488;2023-04-15T04:06:14;4.10;;;2.22;;
25439;SDS011;13365;52.208;5.488;2023-04-15T04:08:40;8.13;;;2.97;;
25439;SDS011;13365;52.208;5.488;2023-04-15T04:11:06;5.65;;;2.47;;
25439;SDS011;13365;52.208;5.488;2023-04-15T04:13:31;7.97;;;2.22;;
25439;SDS011;13365;52.208;5.488;2023-04-15T04:15:57;5.45;;;2.22;;
25439;SDS011;13365;52.208;5.488;2023-04-15T04:18:22;4.55;;;2.42;;
25439;SDS011;13365;52.208;5.488;2023-04-15T04:20:48;9.90;;;3.05;;
25439;SDS011;13365;52.208;5.488;2023-04-15T04:23:13;5.82;;;2.55;;
25439;SDS011;13365;52.208;5.488;2023-04-15T04:25:39;10.02;;;3.00;;
25439;SDS011;13365;52.208;5.488;2023-04-15T04:28:05;3.58;;;2.40;;
25439;SDS011;13365;52.208;5.488;2023-04-15T04:30:31;3.67;;;2.40;;
25439;SDS011;13365;52.208;5.488;2023-04-15T04:32:56;8.80;;;3.17;;
25439;SDS011;13365;52.208;5.488;2023-04-15T04:35:22;5.22;;;2.88;;
25439;SDS011;13365;52.208;5.488;2023-04-15T04:37:47;6.93;;;3.33;;
25439;SDS011;13365;52.208;5.488;2023-04-15T04:40:13;6.95;;;2.78;;
25439;SDS011;13365;52.208;5.488;2023-04-15T04:42:39;7.20;;;2.60;;
25439;SDS011;13365;52.208;5.488;2023-04-15T04:45:05;4.88;;;3.17;;
25439;SDS011;13365;52.208;5.488;2023-04-15T04:47:31;7.72;;;2.95;;
25439;SDS011;13365;52.208;5.488;2023-04-15T04:49:56;4.10;;;2.45;;
25439;SDS011;13365;52.208;5.488;2023-04-15T04:52:22;6.18;;;2.58;;
25439;SDS011;13365;52.208;5.488;2023-04-15T04:54:47;5.85;;;2.92;;
25439;SDS011;13365;52.208;5.488;2023-04-15T04:57:13;5.72;;;2.88;;
25439;SDS011;13365;52.208;5.488;2023-04-15T04:59:39;4.72;;;2.13;;
25439;SDS011;13365;52.208;5.488;2023-04-15T05:02:04;5.18;;;3.00;;
25439;SDS011;13365;52.208;5.488;2023-04-15T05:04:30;4.40;;;2.25;;
25439;SDS011;13365;52.208;5.488;2023-04-15T05:06:56;8.38;;;2.97;;
25439;SDS011;13365;52.208;5.488;2023-04-15T05:09:23;5.00;;;2.88;;
25439;SDS011;13365;52.208;5.488;2023-04-15T05:11:48;8.93;;;3.55;;
25439;SDS011;13365;52.208;5.488;2023-04-15T05:14:14;5.68;;;3.17;;
25439;SDS011;13365;52.208;5.488;2023-04-15T05:16:39;7.70;;;3.42;;
25439;SDS011;13365;52.208;5.488;2023-04-15T05:19:05;11.18;;;2.97;;
25439;SDS011;13365;52.208;5.488;2023-04-15T05:21:31;13.10;;;3.72;;
25439;SDS011;13365;52.208;5.488;2023-04-15T05:23:57;5.82;;;2.60;;
25439;SDS011;13365;52.208;5.488;2023-04-15T05:26:22;4.72;;;2.35;;
25439;SDS011;13365;52.208;5.488;2023-04-15T05:28:48;5.55;;;3.35;;
25439;SDS011;13365;52.208;5.488;2023-04-15T05:31:14;4.03;;;2.45;;
25439;SDS011;13365;52.208;5.488;2023-04-15T05:33:40;7.65;;;2.97;;
25439;SDS011;13365;52.208;5.488;2023-04-15T05:36:05;6.03;;;3.10;;
25439;SDS011;13365;52.208;5.488;2023-04-15T05:38:31;9.80;;;3.92;;
25439;SDS011;13365;52.208;5.488;2023-04-15T05:40:57;3.88;;;2.35;;
25439;SDS011;13365;52.208;5.488;2023-04-15T05:43:22;5.50;;;3.15;;
25439;SDS011;13365;52.208;5.488;2023-04-15T05:45:48;14.48;;;4.60;;
25439;SDS011;13365;52.208;5.488;2023-04-15T05:48:13;5.72;;;3.28;;
25439;SDS011;13365;52.208;5.488;2023-04-15T05:50:40;4.65;;;2.75;;
25439;SDS011;13365;52.208;5.488;2023-04-15T05:53:06;7.68;;;3.20;;
25439;SDS011;13365;52.208;5.488;2023-04-15T05:55:32;9.75;;;3.50;;
25439;SDS011;13365;52.208;5.488;2023-04-15T05:57:58;9.68;;;3.55;;
25439;SDS011;13365;52.208;5.488;2023-04-15T06:00:23;5.47;;;2.60;;
25439;SDS011;13365;52.208;5.488;2023-04-15T06:02:49;5.32;;;3.08;;
25439;SDS011;13365;52.208;5.488;2023-04-15T06:05:15;8.80;;;4.13;;
25439;SDS011;13365;52.208;5.488;2023-04-15T06:07:42;7.50;;;3.60;;
25439;SDS011;13365;52.208;5.488;2023-04-15T06:10:08;5.57;;;3.47;;
25439;SDS011;13365;52.208;5.488;2023-04-15T06:12:34;7.00;;;3.35;;
25439;SDS011;13365;52.208;5.488;2023-04-15T06:14:59;8.48;;;3.65;;
25439;SDS011;13365;52.208;5.488;2023-04-15T06:17:25;4.88;;;3.60;;
25439;SDS011;13365;52.208;5.488;2023-04-15T06:19:51;6.80;;;3.50;;
25439;SDS011;13365;52.208;5.488;2023-04-15T06:22:20;7.63;;;3.30;;
25439;SDS011;13365;52.208;5.488;2023-04-15T06:24:47;5.63;;;2.67;;
25439;SDS011;13365;52.208;5.488;2023-04-15T06:27:13;8.63;;;4.20;;
25439;SDS011;13365;52.208;5.488;2023-04-15T06:29:38;8.88;;;3.55;;
25439;SDS011;13365;52.208;5.488;2023-04-15T06:32:04;6.45;;;3.65;;
25439;SDS011;13365;52.208;5.488;2023-04-15T06:34:30;6.60;;;3.83;;
25439;SDS011;13365;52.208;5.488;2023-04-15T06:36:55;7.50;;;3.38;;
25439;SDS011;13365;52.208;5.488;2023-04-15T06:39:21;8.70;;;4.07;;
25439;SDS011;13365;52.208;5.488;2023-04-15T06:41:46;7.40;;;3.88;;
25439;SDS011;13365;52.208;5.488;2023-04-15T06:44:12;6.03;;;3.35;;
25439;SDS011;13365;52.208;5.488;2023-04-15T06:46:38;7.50;;;4.00;;
25439;SDS011;13365;52.208;5.488;2023-04-15T06:49:03;8.15;;;3.92;;
25439;SDS011;13365;52.208;5.488;2023-04-15T06:51:29;5.88;;;3.72;;
25439;SDS011;13365;52.208;5.488;2023-04-15T06:53:55;10.10;;;3.83;;
25439;SDS011;13365;52.208;5.488;2023-04-15T06:56:21;7.32;;;3.15;;
25439;SDS011;13365;52.208;5.488;2023-04-15T06:58:47;7.15;;;4.07;;
25439;SDS011;13365;52.208;5.488;2023-04-15T07:01:12;8.23;;;3.67;;
25439;SDS011;13365;52.208;5.488;2023-04-15T07:03:38;5.30;;;3.13;;
25439;SDS011;13365;52.208;5.488;2023-04-15T07:06:04;5.95;;;3.15;;
25439;SDS011;13365;52.208;5.488;2023-04-15T07:08:31;16.05;;;4.28;;
25439;SDS011;13365;52.208;5.488;2023-04-15T07:10:57;5.90;;;3.40;;
25439;SDS011;13365;52.208;5.488;2023-04-15T07:13:24;6.53;;;3.28;;
25439;SDS011;13365;52.208;5.488;2023-04-15T07:15:49;6.65;;;3.33;;
25439;SDS011;13365;52.208;5.488;2023-04-15T07:18:15;5.55;;;3.72;;
25439;SDS011;13365;52.208;5.488;2023-04-15T07:20:41;5.72;;;3.53;;
25439;SDS011;13365;52.208;5.488;2023-04-15T07:23:07;6.00;;;3.75;;
25439;SDS011;13365;52.208;5.488;2023-04-15T07:25:33;5.97;;;3.30;;
25439;SDS011;13365;52.208;5.488;2023-04-15T07:27:58;7.22;;;3.40;;
25439;SDS011;13365;52.208;5.488;2023-04-15T07:30:24;6.15;;;3.40;;
25439;SDS011;13365;52.208;5.488;2023-04-15T07:32:50;5.30;;;3.22;;
25439;SDS011;13365;52.208;5.488;2023-04-15T07:35:15;6.10;;;2.97;;
25439;SDS011;13365;52.208;5.488;2023-04-15T07:37:41;11.82;;;3.85;;
25439;SDS011;13365;52.208;5.488;2023-04-15T07:40:07;4.55;;;2.55;;
25439;SDS011;13365;52.208;5.488;2023-04-15T07:42:34;4.78;;;2.80;;
25439;SDS011;13365;52.208;5.488;2023-04-15T07:44:59;8.10;;;3.30;;
25439;SDS011;13365;52.208;5.488;2023-04-15T07:47:25;6.88;;;3.83;;
25439;SDS011;13365;52.208;5.488;2023-04-15T07:49:51;4.47;;;2.65;;
25439;SDS011;13365;52.208;5.488;2023-04-15T07:52:17;7.15;;;3.33;;
25439;SDS011;13365;52.208;5.488;2023-04-15T07:54:42;8.05;;;2.88;;
25439;SDS011;13365;52.208;5.488;2023-04-15T07:57:08;6.32;;;2.80;;
25439;SDS011;13365;52.208;5.488;2023-04-15T07:59:34;4.43;;;1.95;;
25439;SDS011;13365;52.208;5.488;2023-04-15T08:02:00;4.47;;;2.13;;
25439;SDS011;13365;52.208;5.488;2023-04-15T08:04:26;3.50;;;1.77;;
25439;SDS011;13365;52.208;5.488;2023-04-15T08:06:52;4.95;;;2.40;;
25439;SDS011;13365;52.208;5.488;2023-04-15T08:09:18;4.00;;;2.22;;
25439;SDS011;13365;52.208;5.488;2023-04-15T08:11:45;5.25;;;2.72;;
25439;SDS011;13365;52.208;5.488;2023-04-15T08:14:13;3.67;;;2.00;;
25439;SDS011;13365;52.208;5.488;2023-04-15T08:16:38;6.10;;;1.95;;
25439;SDS011;13365;52.208;5.488;2023-04-15T08:19:04;3.55;;;2.10;;
25439;SDS011;13365;52.208;5.488;2023-04-15T08:21:30;3.97;;;2.22;;
25439;SDS011;13365;52.208;5.488;2023-04-15T08:23:55;4.50;;;2.38;;
25439;SDS011;13365;52.208;5.488;2023-04-15T08:26:21;3.25;;;1.98;;
25439;SDS011;13365;52.208;5.488;2023-04-15T08:28:47;5.88;;;2.88;;
25439;SDS011;13365;52.208;5.488;2023-04-15T08:31:13;4.75;;;1.90;;
25439;SDS011;13365;52.208;5.488;2023-04-15T08:33:40;4.15;;;2.20;;
25439;SDS011;13365;52.208;5.488;2023-04-15T08:36:06;5.45;;;1.95;;
25439;SDS011;13365;52.208;5.488;2023-04-15T08:38:32;4.32;;;2.05;;
25439;SDS011;13365;52.208;5.488;2023-04-15T08:40:59;4.70;;;1.92;;
25439;SDS011;13365;52.208;5.488;2023-04-15T08:43:27;4.28;;;2.50;;
25439;SDS011;13365;52.208;5.488;2023-04-15T08:45:58;3.78;;;2.28;;
25439;SDS011;13365;52.208;5.488;2023-04-15T08:48:27;5.05;;;2.42;;
25439;SDS011;13365;52.208;5.488;2023-04-15T08:50:55;3.63;;;1.90;;
25439;SDS011;13365;52.208;5.488;2023-04-15T08:53:21;4.85;;;2.60;;
25439;SDS011;13365;52.208;5.488;2023-04-15T08:55:50;3.75;;;1.77;;
25439;SDS011;13365;52.208;5.488;2023-04-15T08:58:16;5.38;;;2.42;;
25439;SDS011;13365;52.208;5.488;2023-04-15T09:00:43;7.53;;;1.95;;
25439;SDS011;13365;52.208;5.488;2023-04-15T09:03:09;4.18;;;2.35;;
25439;SDS011;13365;52.208;5.488;2023-04-15T09:05:36;3.83;;;2.05;;
25439;SDS011;13365;52.208;5.488;2023-04-15T09:08:02;3.60;;;2.17;;
25439;SDS011;13365;52.208;5.488;2023-04-15T09:10:29;2.35;;;1.50;;
25439;SDS011;13365;52.208;5.488;2023-04-15T09:12:55;2.63;;;1.50;;
25439;SDS011;13365;52.208;5.488;2023-04-15T09:15:23;3.17;;;1.95;;
25439;SDS011;13365;52.208;5.488;2023-04-15T09:17:51;2.90;;;1.77;;
25439;SDS011;13365;52.208;5.488;2023-04-15T09:20:17;2.47;;;1.42;;
25439;SDS011;13365;52.208;5.488;2023-04-15T09:22:43;2.92;;;1.45;;
25439;SDS011;13365;52.208;5.488;2023-04-15T09:27:58;2.30;;;1.17;;
25439;SDS011;13365;52.208;5.488;2023-04-15T09:30:26;3.08;;;1.70;;
25439;SDS011;13365;52.208;5.488;2023-04-15T09:32:57;3.60;;;2.08;;
25439;SDS011;13365;52.208;5.488;2023-04-15T09:35:24;3.13;;;1.60;;
25439;SDS011;13365;52.208;5.488;2023-04-15T09:37:51;2.92;;;1.60;;
25439;SDS011;13365;52.208;5.488;2023-04-15T09:40:29;2.13;;;1.25;;
25439;SDS011;13365;52.208;5.488;2023-04-15T09:43:02;2.60;;;1.42;;
25439;SDS011;13365;52.208;5.488;2023-04-15T09:45:29;4.30;;;1.55;;
25439;SDS011;13365;52.208;5.488;2023-04-15T09:47:56;17.13;;;1.48;;
25439;SDS011;13365;52.208;5.488;2023-04-15T09:50:22;1.60;;;1.20;;
25439;SDS011;13365;52.208;5.488;2023-04-15T09:52:52;2.10;;;1.17;;
25439;SDS011;13365;52.208;5.488;2023-04-15T09:55:17;2.30;;;1.33;;
25439;SDS011;13365;52.208;5.488;2023-04-15T09:57:44;2.13;;;1.17;;
25439;SDS011;13365;52.208;5.488;2023-04-15T10:00:11;1.92;;;1.02;;
25439;SDS011;13365;52.208;5.488;2023-04-15T10:02:41;1.98;;;0.85;;
25439;SDS011;13365;52.208;5.488;2023-04-15T10:05:09;5.88;;;1.45;;
25439;SDS011;13365;52.208;5.488;2023-04-15T10:07:37;1.80;;;1.23;;
25439;SDS011;13365;52.208;5.488;2023-04-15T10:10:05;2.63;;;1.65;;
25439;SDS011;13365;52.208;5.488;2023-04-15T10:12:31;2.72;;;1.35;;
25439;SDS011;13365;52.208;5.488;2023-04-15T10:14:58;1.08;;;0.82;;
25439;SDS011;13365;52.208;5.488;2023-04-15T10:17:26;4.45;;;1.73;;
25439;SDS011;13365;52.208;5.488;2023-04-15T10:19:53;1.92;;;1.30;;
25439;SDS011;13365;52.208;5.488;2023-04-15T10:22:20;2.33;;;1.25;;
25439;SDS011;13365;52.208;5.488;2023-04-15T10:24:47;2.47;;;1.25;;
25439;SDS011;13365;52.208;5.488;2023-04-15T10:27:13;2.22;;;1.40;;
25439;SDS011;13365;52.208;5.488;2023-04-15T10:29:41;5.10;;;1.35;;
25439;SDS011;13365;52.208;5.488;2023-04-15T10:32:07;3.25;;;1.20;;
25439;SDS011;13365;52.208;5.488;2023-04-15T10:34:34;1.13;;;0.80;;
25439;SDS011;13365;52.208;5.488;2023-04-15T10:37:01;2.08;;;1.30;;
25439;SDS011;13365;52.208;5.488;2023-04-15T10:42:05;1.02;;;0.77;;
25439;SDS011;13365;52.208;5.488;2023-04-15T10:44:31;1.67;;;0.90;;
25439;SDS011;13365;52.208;5.488;2023-04-15T10:46:56;2.50;;;1.20;;
25439;SDS011;13365;52.208;5.488;2023-04-15T10:49:25;1.48;;;0.95;;
25439;SDS011;13365;52.208;5.488;2023-04-15T10:51:52;2.08;;;1.15;;
25439;SDS011;13365;52.208;5.488;2023-04-15T10:57:36;3.28;;;1.38;;
25439;SDS011;13365;52.208;5.488;2023-04-15T11:02:28;1.10;;;0.70;;
25439;SDS011;13365;52.208;5.488;2023-04-15T11:05:13;1.77;;;1.00;;
25439;SDS011;13365;52.208;5.488;2023-04-15T11:10:53;1.85;;;1.17;;
25439;SDS011;13365;52.208;5.488;2023-04-15T11:13:05;1.88;;;0.77;;
25439;SDS011;13365;52.208;5.488;2023-04-15T11:15:41;1.33;;;0.80;;
25439;SDS011;13365;52.208;5.488;2023-04-15T11:20:43;2.55;;;0.80;;
25439;SDS011;13365;52.208;5.488;2023-04-15T11:23:11;1.58;;;0.95;;
25439;SDS011;13365;52.208;5.488;2023-04-15T11:25:38;1.75;;;0.90;;
25439;SDS011;13365;52.208;5.488;2023-04-15T11:28:04;2.72;;;1.15;;
25439;SDS011;13365;52.208;5.488;2023-04-15T11:30:31;1.83;;;1.38;;
25439;SDS011;13365;52.208;5.488;2023-04-15T11:32:59;1.45;;;0.77;;
25439;SDS011;13365;52.208;5.488;2023-04-15T11:35:26;1.77;;;0.90;;
25439;SDS011;13365;52.208;5.488;2023-04-15T11:37:52;3.33;;;1.50;;
25439;SDS011;13365;52.208;5.488;2023-04-15T11:40:23;0.70;;;0.52;;
25439;SDS011;13365;52.208;5.488;2023-04-15T11:45:28;3.17;;;1.33;;
25439;SDS011;13365;52.208;5.488;2023-04-15T11:47:54;0.90;;;0.57;;
25439;SDS011;13365;52.208;5.488;2023-04-15T11:50:28;1.08;;;0.60;;
25439;SDS011;13365;52.208;5.488;2023-04-15T11:52:54;2.33;;;0.73;;
25439;SDS011;13365;52.208;5.488;2023-04-15T11:55:25;1.40;;;0.63;;
25439;SDS011;13365;52.208;5.488;2023-04-15T12:00:36;1.85;;;0.93;;
25439;SDS011;13365;52.208;5.488;2023-04-15T12:03:10;1.30;;;0.50;;
25439;SDS011;13365;52.208;5.488;2023-04-15T12:11:18;1.38;;;0.73;;
25439;SDS011;13365;52.208;5.488;2023-04-15T12:13:49;1.73;;;0.82;;
25439;SDS011;13365;52.208;5.488;2023-04-15T12:16:15;2.33;;;0.93;;
25439;SDS011;13365;52.208;5.488;2023-04-15T12:18:54;2.67;;;1.05;;
25439;SDS011;13365;52.208;5.488;2023-04-15T12:21:25;3.35;;;0.70;;
25439;SDS011;13365;52.208;5.488;2023-04-15T12:23:54;0.32;;;0.30;;
25439;SDS011;13365;52.208;5.488;2023-04-15T12:28:54;0.47;;;0.30;;
25439;SDS011;13365;52.208;5.488;2023-04-15T12:31:29;2.38;;;0.68;;
25439;SDS011;13365;52.208;5.488;2023-04-15T12:33:55;0.70;;;0.35;;
25439;SDS011;13365;52.208;5.488;2023-04-15T12:36:22;2.13;;;0.50;;
25439;SDS011;13365;52.208;5.488;2023-04-15T12:38:48;0.90;;;0.40;;
25439;SDS011;13365;52.208;5.488;2023-04-15T12:41:13;1.05;;;0.65;;
25439;SDS011;13365;52.208;5.488;2023-04-15T12:43:39;0.68;;;0.50;;
25439;SDS011;13365;52.208;5.488;2023-04-15T12:46:05;1.02;;;0.70;;
25439;SDS011;13365;52.208;5.488;2023-04-15T12:48:32;1.48;;;0.70;;
25439;SDS011;13365;52.208;5.488;2023-04-15T12:50:58;0.52;;;0.40;;
25439;SDS011;13365;52.208;5.488;2023-04-15T12:53:24;1.55;;;0.60;;
25439;SDS011;13365;52.208;5.488;2023-04-15T12:55:50;0.43;;;0.38;;
25439;SDS011;13365;52.208;5.488;2023-04-15T12:58:16;0.73;;;0.50;;
25439;SDS011;13365;52.208;5.488;2023-04-15T13:00:41;0.90;;;0.45;;
25439;SDS011;13365;52.208;5.488;2023-04-15T13:03:07;0.63;;;0.28;;
25439;SDS011;13365;52.208;5.488;2023-04-15T13:05:32;0.82;;;0.60;;
25439;SDS011;13365;52.208;5.488;2023-04-15T13:07:58;2.72;;;0.70;;
25439;SDS011;13365;52.208;5.488;2023-04-15T13:10:23;0.73;;;0.40;;
25439;SDS011;13365;52.208;5.488;2023-04-15T13:12:49;1.08;;;0.50;;
25439;SDS011;13365;52.208;5.488;2023-04-15T13:15:17;0.98;;;0.55;;
25439;SDS011;13365;52.208;5.488;2023-04-15T13:17:44;5.43;;;0.77;;
25439;SDS011;13365;52.208;5.488;2023-04-15T13:20:10;0.43;;;0.20;;
25439;SDS011;13365;52.208;5.488;2023-04-15T13:22:36;0.73;;;0.32;;
25439;SDS011;13365;52.208;5.488;2023-04-15T13:25:01;1.15;;;0.30;;
25439;SDS011;13365;52.208;5.488;2023-04-15T13:27:27;3.28;;;1.05;;
25439;SDS011;13365;52.208;5.488;2023-04-15T13:29:53;1.83;;;0.77;;
25439;SDS011;13365;52.208;5.488;2023-04-15T13:32:18;0.70;;;0.47;;
25439;SDS011;13365;52.208;5.488;2023-04-15T13:34:44;1.13;;;0.65;;
25439;SDS011;13365;52.208;5.488;2023-04-15T13:37:09;1.58;;;0.38;;
25439;SDS011;13365;52.208;5.488;2023-04-15T13:39:35;0.32;;;0.32;;
25439;SDS011;13365;52.208;5.488;2023-04-15T13:42:00;1.48;;;0.32;;
25439;SDS011;13365;52.208;5.488;2023-04-15T13:44:27;2.22;;;1.00;;
25439;SDS011;13365;52.208;5.488;2023-04-15T13:46:52;1.27;;;0.50;;
25439;SDS011;13365;52.208;5.488;2023-04-15T13:49:18;0.68;;;0.20;;
25439;SDS011;13365;52.208;5.488;2023-04-15T13:51:43;1.20;;;0.38;;
25439;SDS011;13365;52.208;5.488;2023-04-15T13:54:09;1.17;;;0.52;;
25439;SDS011;13365;52.208;5.488;2023-04-15T13:56:34;0.77;;;0.30;;
25439;SDS011;13365;52.208;5.488;2023-04-15T13:59:00;0.88;;;0.50;;
25439;SDS011;13365;52.208;5.488;2023-04-15T14:01:27;0.75;;;0.40;;
25439;SDS011;13365;52.208;5.488;2023-04-15T14:03:53;0.73;;;0.50;;
25439;SDS011;13365;52.208;5.488;2023-04-15T14:06:18;3.15;;;0.30;;
25439;SDS011;13365;52.208;5.488;2023-04-15T14:08:44;0.28;;;0.20;;
25439;SDS011;13365;52.208;5.488;2023-04-15T14:11:10;0.63;;;0.50;;
25439;SDS011;13365;52.208;5.488;2023-04-15T14:13:35;7.32;;;1.23;;
25439;SDS011;13365;52.208;5.488;2023-04-15T14:16:01;0.75;;;0.50;;
25439;SDS011;13365;52.208;5.488;2023-04-15T14:18:27;0.60;;;0.40;;
25439;SDS011;13365;52.208;5.488;2023-04-15T14:20:53;1.80;;;0.65;;
25439;SDS011;13365;52.208;5.488;2023-04-15T14:23:19;0.70;;;0.52;;
25439;SDS011;13365;52.208;5.488;2023-04-15T14:25:45;1.35;;;1.10;;
25439;SDS011;13365;52.208;5.488;2023-04-15T14:28:10;0.60;;;0.43;;
25439;SDS011;13365;52.208;5.488;2023-04-15T14:30:36;8.63;;;0.77;;
25439;SDS011;13365;52.208;5.488;2023-04-15T14:33:02;1.20;;;0.80;;
25439;SDS011;13365;52.208;5.488;2023-04-15T14:35:27;1.88;;;0.73;;
25439;SDS011;13365;52.208;5.488;2023-04-15T14:37:53;6.35;;;0.68;;
25439;SDS011;13365;52.208;5.488;2023-04-15T14:40:19;2.25;;;1.00;;
25439;SDS011;13365;52.208;5.488;2023-04-15T14:42:45;4.20;;;1.73;;
25439;SDS011;13365;52.208;5.488;2023-04-15T14:45:11;11.35;;;1.40;;
25439;SDS011;13365;52.208;5.488;2023-04-15T14:47:36;0.80;;;0.52;;
25439;SDS011;13365;52.208;5.488;2023-04-15T14:50:02;2.92;;;0.75;;
25439;SDS011;13365;52.208;5.488;2023-04-15T14:52:31;2.30;;;0.88;;
25439;SDS011;13365;52.208;5.488;2023-04-15T14:55:02;6.05;;;1.58;;
25439;SDS011;13365;52.208;5.488;2023-04-15T14:57:31;7.57;;;1.35;;
25439;SDS011;13365;52.208;5.488;2023-04-15T14:59:57;2.13;;;0.70;;
25439;SDS011;13365;52.208;5.488;2023-04-15T15:02:23;12.90;;;4.50;;
25439;SDS011;13365;52.208;5.488;2023-04-15T15:04:48;1.35;;;0.45;;
25439;SDS011;13365;52.208;5.488;2023-04-15T15:07:14;0.85;;;0.55;;
25439;SDS011;13365;52.208;5.488;2023-04-15T15:09:39;4.55;;;1.92;;
25439;SDS011;13365;52.208;5.488;2023-04-15T15:12:05;0.57;;;0.57;;